Time;durP1;ratioP1;P1;durP2;ratioP2;P2;SDS_P1;SDS_P2;PMS_P1;PMS_P2;Temp;Humidity;BMP_temperature;BMP_pressure;BME280_temperature;BME280_humidity;BME280_pressure;Samples;Min_cycle;Max_cycle;Signal;HPM_P1;HPM_P2
2022/03/01 00:00:26;;;;;;;17.02;13.23;;;;;;;-0.81;77.11;96462.28;6273658;22;20004;-62
2022/03/01 00:02:51;;;;;;;18.65;14.30;;;;;;;-0.85;76.84;96463.28;6300923;22;20030;-62
2022/03/01 00:05:17;;;;;;;19.20;13.93;;;;;;;-0.84;77.37;96458.94;6301060;22;20443;-62
2022/03/01 00:07:42;;;;;;;16.83;12.07;;;;;;;-0.87;77.95;96465.06;6297745;22;20018;-61
2022/03/01 00:10:08;;;;;;;16.85;13.43;;;;;;;-1.01;78.58;96466.38;6298994;22;20019;-62
2022/03/01 00:12:34;;;;;;;18.27;13.95;;;;;;;-1.02;79.14;96471.59;6298827;22;20007;-61
2022/03/01 00:14:59;;;;;;;14.75;13.25;;;;;;;-1.05;79.88;96476.84;6299802;22;20074;-62
2022/03/01 00:17:24;;;;;;;14.70;13.20;;;;;;;-1.06;80.03;96481.19;6297918;22;20011;-61
2022/03/01 00:19:50;;;;;;;18.38;12.98;;;;;;;-1.06;80.22;96476.03;6272819;22;20007;-62
2022/03/01 00:22:15;;;;;;;18.25;13.02;;;;;;;-1.09;80.75;96488.19;6299577;22;19999;-62
2022/03/01 00:24:41;;;;;;;15.65;12.43;;;;;;;-1.11;80.42;96483.06;6299556;22;20506;-61
2022/03/01 00:27:07;;;;;;;14.07;12.50;;;;;;;-1.16;80.98;96485.84;6298256;22;20000;-62
2022/03/01 00:29:32;;;;;;;15.52;12.45;;;;;;;-1.20;80.53;96481.66;6299138;22;20004;-62
2022/03/01 00:31:57;;;;;;;13.95;12.38;;;;;;;-1.22;80.19;96483.44;6299106;22;20535;-61
2022/03/01 00:34:23;;;;;;;316.88;175.30;;;;;;;-1.17;80.31;96478.13;6299512;22;20023;-61
2022/03/01 00:36:48;;;;;;;277.10;152.77;;;;;;;-1.17;79.70;96481.56;6298951;22;20007;-62
2022/03/01 00:39:14;;;;;;;148.68;83.00;;;;;;;-1.24;79.85;96481.81;6300047;22;19999;-61
2022/03/01 00:41:39;;;;;;;204.70;111.13;;;;;;;-1.30;79.21;96483.69;6301141;22;19996;-61
2022/03/01 00:44:05;;;;;;;130.52;73.28;;;;;;;-1.28;79.23;96481.06;6300336;22;20328;-61
2022/03/01 00:46:30;;;;;;;80.00;48.15;;;;;;;-1.25;79.02;96486.13;6300035;22;20328;-60
2022/03/01 00:48:58;;;;;;;60.30;35.75;;;;;;;-1.27;79.50;96479.31;6300165;22;20473;-59
2022/03/01 00:51:25;;;;;;;58.58;34.03;;;;;;;-1.26;79.20;96473.25;6300962;22;20010;-60
2022/03/01 00:53:50;;;;;;;59.28;33.45;;;;;;;-1.30;79.53;96491.44;6300472;22;20015;-59
2022/03/01 00:56:16;;;;;;;46.65;30.90;;;;;;;-1.28;79.47;96488.81;6300701;22;20370;-59
2022/03/01 00:58:42;;;;;;;41.60;27.30;;;;;;;-1.26;79.15;96484.44;6300972;22;20003;-61
2022/03/01 01:01:07;;;;;;;38.63;26.33;;;;;;;-1.34;80.71;96491.59;6300775;22;20055;-60
2022/03/01 01:03:33;;;;;;;29.63;20.80;;;;;;;-1.39;80.39;96489.16;6300636;22;20082;-60
2022/03/01 01:05:58;;;;;;;29.55;20.55;;;;;;;-1.39;80.73;96493.47;6300467;22;20066;-59
2022/03/01 01:08:24;;;;;;;30.08;19.65;;;;;;;-1.37;80.35;96491.69;6300648;22;20439;-60
2022/03/01 01:10:49;;;;;;;27.15;17.55;;;;;;;-1.39;80.85;96496.06;6299640;22;20344;-62
2022/03/01 01:13:15;;;;;;;27.05;18.20;;;;;;;-1.45;81.44;96502.25;6300895;22;20104;-62
2022/03/01 01:15:42;;;;;;;26.42;18.40;;;;;;;-1.44;81.71;96496.19;6300272;22;20010;-60
2022/03/01 01:18:08;;;;;;;27.35;18.95;;;;;;;-1.50;81.72;96501.56;6300590;22;20316;-62
2022/03/01 01:20:34;;;;;;;26.63;18.90;;;;;;;-1.50;81.72;96504.97;6300574;22;20135;-62
2022/03/01 01:22:59;;;;;;;24.77;15.60;;;;;;;-1.49;81.24;96503.25;6300701;22;20015;-61
2022/03/01 01:25:25;;;;;;;21.70;15.32;;;;;;;-1.51;81.42;96505.06;6300877;22;20042;-61
2022/03/01 01:27:54;;;;;;;23.20;16.67;;;;;;;-1.56;82.00;96507.75;6300541;22;20014;-61
2022/03/01 01:30:23;;;;;;;21.52;15.32;;;;;;;-1.59;81.95;96513.03;6300907;22;20038;-61
2022/03/01 01:32:49;;;;;;;23.50;15.07;;;;;;;-1.66;83.14;96511.50;6300287;22;20494;-61
2022/03/01 01:35:17;;;;;;;21.65;13.75;;;;;;;-1.67;82.49;96512.41;6300592;22;20034;-61
2022/03/01 01:37:43;;;;;;;20.00;14.65;;;;;;;-1.64;82.08;96517.50;6299925;22;20059;-61
2022/03/01 01:40:13;;;;;;;17.92;13.90;;;;;;;-1.66;82.24;96519.25;6300808;22;20006;-61
2022/03/01 01:42:39;;;;;;;18.70;12.65;;;;;;;-1.68;81.99;96521.91;6274300;22;20011;-61
2022/03/01 01:45:06;;;;;;;14.25;10.68;;;;;;;-1.70;80.93;96530.56;6300359;22;20010;-61
2022/03/01 01:47:31;;;;;;;17.70;11.20;;;;;;;-1.69;81.25;96537.44;6300893;22;20003;-61
2022/03/01 01:49:57;;;;;;;15.80;11.18;;;;;;;-1.72;82.23;96538.38;6300450;22;19999;-60
2022/03/01 01:52:25;;;;;;;13.93;10.88;;;;;;;-1.76;81.36;96540.19;6299643;22;20383;-61
2022/03/01 01:54:50;;;;;;;13.38;10.48;;;;;;;-1.78;81.21;96541.97;6300143;22;20015;-61
2022/03/01 01:57:22;;;;;;;13.20;10.50;;;;;;;-1.74;81.73;96550.50;6300468;22;20018;-61
2022/03/01 01:59:49;;;;;;;12.40;9.85;;;;;;;-1.76;81.54;96545.38;6300281;22;20038;-61
2022/03/01 02:02:17;;;;;;;13.77;9.80;;;;;;;-1.80;81.85;96540.31;6300254;22;20055;-61
2022/03/01 02:04:43;;;;;;;11.27;9.20;;;;;;;-1.81;81.63;96544.66;6300774;22;20006;-61
2022/03/01 02:07:10;;;;;;;13.25;8.40;;;;;;;-1.82;81.24;96542.09;6300158;22;20003;-62
2022/03/01 02:09:35;;;;;;;16.92;8.98;;;;;;;-1.83;81.09;96551.59;6300080;22;20086;-61
2022/03/01 02:12:02;;;;;;;10.35;8.07;;;;;;;-1.83;81.42;96550.75;6300801;22;20489;-61
2022/03/01 02:14:31;;;;;;;10.52;8.15;;;;;;;-1.87;82.00;96561.16;6300611;22;20434;-61
2022/03/01 02:16:59;;;;;;;10.27;9.15;;;;;;;-1.91;81.74;96556.97;6300206;22;20048;-61
2022/03/01 02:19:25;;;;;;;11.18;9.10;;;;;;;-1.90;82.30;96556.09;6300296;22;20431;-61
2022/03/01 02:21:55;;;;;;;9.85;8.65;;;;;;;-1.94;82.58;96551.06;6300571;22;20024;-61
2022/03/01 02:24:23;;;;;;;9.93;8.90;;;;;;;-1.96;82.53;96545.09;6300325;22;20004;-61
2022/03/01 02:26:48;;;;;;;9.63;8.43;;;;;;;-1.98;82.16;96549.47;6300616;22;20007;-61
2022/03/01 02:29:14;;;;;;;9.32;8.20;;;;;;;-1.99;81.74;96537.44;6300678;22;20700;-61
2022/03/01 02:31:39;;;;;;;11.15;8.10;;;;;;;-2.03;82.77;96544.41;6300361;22;20423;-61
2022/03/01 02:34:05;;;;;;;12.32;8.55;;;;;;;-2.05;81.90;96544.47;6300365;22;20426;-61
2022/03/01 02:36:30;;;;;;;11.85;9.05;;;;;;;-2.02;82.47;96540.94;6300037;22;20033;-60
2022/03/01 02:38:57;;;;;;;14.20;9.43;;;;;;;-2.02;82.55;96536.66;6300617;22;20105;-61
2022/03/01 02:41:24;;;;;;;11.00;8.55;;;;;;;-2.04;82.43;96533.28;6300496;22;19999;-61
2022/03/01 02:43:50;;;;;;;14.82;9.70;;;;;;;-2.06;82.52;96539.34;6300298;22;20051;-61
2022/03/01 02:46:15;;;;;;;12.50;9.15;;;;;;;-2.11;81.81;96530.91;6300137;22;20075;-61
2022/03/01 02:48:41;;;;;;;15.45;9.82;;;;;;;-2.09;81.12;96535.13;6300072;22;20354;-61
2022/03/01 02:51:06;;;;;;;9.68;8.63;;;;;;;-2.07;81.27;96528.19;6300495;22;19999;-61
2022/03/01 02:53:34;;;;;;;11.85;8.05;;;;;;;-1.97;82.35;96535.66;6300068;22;20734;-61
2022/03/01 02:55:59;;;;;;;10.63;8.63;;;;;;;-2.00;83.27;96533.19;6272388;22;20011;-61
2022/03/01 02:58:25;;;;;;;13.32;8.77;;;;;;;-2.08;82.32;96526.50;6300032;22;20060;-61
2022/03/01 03:00:50;;;;;;;10.07;8.95;;;;;;;-2.07;82.63;96530.78;6300068;22;20066;-61
2022/03/01 03:03:15;;;;;;;10.32;8.40;;;;;;;-2.07;82.60;96530.78;6299975;22;20339;-61
2022/03/01 03:05:41;;;;;;;11.73;8.85;;;;;;;-2.07;83.23;96524.75;6299696;22;20034;-61
2022/03/01 03:08:07;;;;;;;10.48;8.35;;;;;;;-2.10;82.60;96527.44;6300336;22;20033;-61
2022/03/01 03:10:33;;;;;;;10.52;8.40;;;;;;;-2.12;82.50;96521.47;6299594;22;20066;-61
2022/03/01 03:13:00;;;;;;;10.93;8.55;;;;;;;-2.13;82.84;96520.59;6300194;22;20074;-60
2022/03/01 03:15:25;;;;;;;9.68;8.07;;;;;;;-2.13;82.55;96523.19;6300060;22;20003;-61
2022/03/01 03:17:51;;;;;;;9.50;8.05;;;;;;;-2.14;83.08;96529.25;6300191;22;20011;-61
2022/03/01 03:20:16;;;;;;;9.55;8.60;;;;;;;-2.20;83.26;96524.25;6299186;22;20003;-61
2022/03/01 03:22:41;;;;;;;10.50;8.32;;;;;;;-2.22;83.29;96524.28;6299684;22;20439;-61
2022/03/01 03:25:07;;;;;;;9.52;7.60;;;;;;;-2.29;83.39;96522.78;6300227;22;20007;-61
2022/03/01 03:27:33;;;;;;;10.27;8.35;;;;;;;-2.29;83.62;96527.94;6299352;22;20004;-61
2022/03/01 03:29:58;;;;;;;8.82;7.80;;;;;;;-2.29;83.36;96532.28;6299801;22;20003;-61
2022/03/01 03:32:23;;;;;;;11.45;8.82;;;;;;;-2.29;83.88;96530.53;6299535;22;20439;-61
2022/03/01 03:34:49;;;;;;;17.55;10.73;;;;;;;-2.28;83.63;96524.47;6301007;22;20003;-61
2022/03/01 03:37:14;;;;;;;14.52;10.90;;;;;;;-2.26;83.11;96534.75;6300476;22;20042;-61
2022/03/01 03:39:40;;;;;;;16.05;9.40;;;;;;;-2.26;83.13;96527.03;6301102;22;20078;-61
2022/03/01 03:42:05;;;;;;;11.27;8.48;;;;;;;-2.26;82.61;96525.28;6301316;22;20074;-62
2022/03/01 03:44:30;;;;;;;15.73;8.23;;;;;;;-2.22;82.58;96528.63;6301042;22;20421;-60
2022/03/01 03:46:56;;;;;;;11.27;8.60;;;;;;;-2.21;83.42;96527.72;6300862;22;20449;-61
2022/03/01 03:49:22;;;;;;;11.73;9.05;;;;;;;-2.26;82.80;96532.19;6301147;22;19999;-61
2022/03/01 03:51:48;;;;;;;10.00;8.80;;;;;;;-2.30;83.77;96528.84;6301366;22;20011;-60
2022/03/01 03:54:14;;;;;;;12.48;8.40;;;;;;;-2.32;83.62;96534.06;6301310;22;20583;-62
2022/03/01 03:56:39;;;;;;;11.30;8.73;;;;;;;-2.33;83.85;96536.66;6300580;22;20102;-62
2022/03/01 03:59:07;;;;;;;9.82;8.68;;;;;;;-2.36;83.55;96535.00;6301114;22;20014;-61
2022/03/01 04:01:33;;;;;;;9.70;8.45;;;;;;;-2.36;83.23;96541.91;6301230;22;19999;-61
2022/03/01 04:04:00;;;;;;;10.27;8.05;;;;;;;-2.38;84.00;96538.53;6301106;22;20003;-61
2022/03/01 04:06:26;;;;;;;15.23;9.05;;;;;;;-2.38;83.42;96539.34;6300515;22;20506;-61
2022/03/01 04:08:51;;;;;;;12.07;9.40;;;;;;;-2.38;83.29;96536.78;6300645;22;20094;-61
2022/03/01 04:11:17;;;;;;;10.93;9.07;;;;;;;-2.36;83.31;96537.56;6301191;22;20003;-61
2022/03/01 04:13:42;;;;;;;11.60;8.75;;;;;;;-2.36;84.17;96539.31;6301087;22;20003;-61
2022/03/01 04:16:08;;;;;;;10.68;8.95;;;;;;;-2.42;83.69;96542.91;6300796;22;20035;-61
2022/03/01 04:18:33;;;;;;;10.38;8.60;;;;;;;-2.45;83.87;96545.56;6300530;22;20007;-61
2022/03/01 04:20:59;;;;;;;10.95;8.77;;;;;;;-2.52;83.50;96541.47;6300606;22;20034;-61
2022/03/01 04:23:24;;;;;;;14.05;9.40;;;;;;;-2.53;83.68;96547.53;6300966;22;20033;-62
2022/03/01 04:25:50;;;;;;;11.40;9.52;;;;;;;-2.50;83.15;96545.69;6301024;22;20031;-61
2022/03/01 04:28:15;;;;;;;13.35;9.55;;;;;;;-2.53;84.66;96544.94;6300758;22;20007;-61
2022/03/01 04:30:40;;;;;;;12.88;8.85;;;;;;;-2.58;84.04;96545.06;6300728;22;20119;-62
2022/03/01 04:33:06;;;;;;;10.68;9.43;;;;;;;-2.61;84.05;96543.41;6300646;22;20350;-62
2022/03/01 04:35:32;;;;;;;10.55;9.55;;;;;;;-2.62;84.66;96546.88;6300910;22;20029;-61
2022/03/01 04:37:57;;;;;;;10.02;8.63;;;;;;;-2.65;84.74;96541.78;6299592;22;20081;-61
2022/03/01 04:40:23;;;;;;;12.00;9.05;;;;;;;-2.68;85.05;96547.03;6300054;22;20043;-61
2022/03/01 04:42:49;;;;;;;9.32;8.40;;;;;;;-2.64;85.86;96551.22;6300883;22;20435;-62
2022/03/01 04:45:16;;;;;;;11.70;8.65;;;;;;;-2.67;84.66;96548.72;6299952;22;20004;-62
2022/03/01 04:47:42;;;;;;;11.45;8.20;;;;;;;-2.69;85.07;96544.47;6300906;22;20007;-61
2022/03/01 04:50:08;;;;;;;10.15;9.13;;;;;;;-2.70;85.12;96548.81;6300311;22;20014;-61
2022/03/01 04:52:34;;;;;;;10.30;8.80;;;;;;;-2.72;85.28;96555.72;6300630;22;20009;-61
2022/03/01 04:54:59;;;;;;;11.77;9.30;;;;;;;-2.72;85.62;96547.13;6301165;22;20062;-61
2022/03/01 04:57:25;;;;;;;10.45;9.35;;;;;;;-2.77;85.48;96554.97;6273217;22;20011;-61
2022/03/01 04:59:50;;;;;;;10.23;8.38;;;;;;;-2.81;85.82;96561.09;6300787;22;20059;-62
2022/03/01 05:02:15;;;;;;;10.88;8.48;;;;;;;-2.81;86.12;96561.09;6300749;22;19999;-61
2022/03/01 05:04:41;;;;;;;9.82;8.93;;;;;;;-2.82;85.89;96554.25;6300576;22;20051;-60
2022/03/01 05:07:06;;;;;;;10.18;9.20;;;;;;;-2.84;85.67;96561.19;6300835;22;19999;-60
2022/03/01 05:09:33;;;;;;;15.00;8.13;;;;;;;-2.90;86.46;96564.75;6299783;22;20047;-61
2022/03/01 05:11:59;;;;;;;10.98;9.13;;;;;;;-2.94;86.79;96566.59;6300317;22;20009;-60
2022/03/01 05:14:24;;;;;;;9.05;7.70;;;;;;;-2.97;85.96;96561.50;6299513;22;20030;-61
2022/03/01 05:16:50;;;;;;;9.32;7.45;;;;;;;-2.97;86.18;96564.09;6299538;22;20011;-61
2022/03/01 05:19:15;;;;;;;9.50;8.48;;;;;;;-2.96;86.07;96563.19;6300326;22;20004;-61
2022/03/01 05:21:41;;;;;;;11.02;8.80;;;;;;;-2.97;86.34;96560.66;6300433;22;20011;-61
2022/03/01 05:24:07;;;;;;;10.30;8.65;;;;;;;-3.00;87.28;96569.28;6300011;22;20011;-61
2022/03/01 05:26:32;;;;;;;10.70;8.43;;;;;;;-3.03;87.27;96570.22;6300488;22;20006;-61
2022/03/01 05:28:58;;;;;;;10.10;8.55;;;;;;;-3.06;87.80;96570.31;6300482;22;20450;-61
2022/03/01 05:31:23;;;;;;;9.73;8.68;;;;;;;-2.99;87.27;96573.56;6300526;22;20027;-61
2022/03/01 05:33:49;;;;;;;10.45;9.30;;;;;;;-2.93;87.29;96567.41;6300462;22;20330;-61
2022/03/01 05:36:15;;;;;;;15.23;8.40;;;;;;;-2.95;86.79;96571.75;6300574;22;20013;-62
2022/03/01 05:38:42;;;;;;;10.45;8.75;;;;;;;-3.00;87.37;96566.72;6300431;22;20071;-60
2022/03/01 05:41:08;;;;;;;10.18;7.82;;;;;;;-3.00;87.68;96571.88;6300937;22;20435;-61
2022/03/01 05:43:34;;;;;;;9.32;8.43;;;;;;;-2.99;87.11;96570.97;6300599;22;20398;-61
2022/03/01 05:45:59;;;;;;;10.20;9.20;;;;;;;-3.01;87.79;96570.16;6300655;22;20113;-61
2022/03/01 05:48:26;;;;;;;12.98;9.68;;;;;;;-3.04;88.96;96572.84;6299869;22;20066;-61
2022/03/01 05:50:52;;;;;;;10.02;8.10;;;;;;;-3.09;88.17;96570.38;6300625;22;20015;-61
2022/03/01 05:53:18;;;;;;;11.43;8.05;;;;;;;-3.10;87.82;96570.41;6300568;22;20003;-61
2022/03/01 05:55:43;;;;;;;11.00;8.40;;;;;;;-3.13;88.29;96573.06;6300476;22;20000;-61
2022/03/01 05:58:08;;;;;;;9.35;8.45;;;;;;;-3.14;87.98;96584.25;6300496;22;20059;-61
2022/03/01 06:00:34;;;;;;;10.65;8.02;;;;;;;-3.16;88.06;96581.69;6298706;22;20008;-60
2022/03/01 06:02:59;;;;;;;10.20;8.50;;;;;;;-3.15;88.32;96583.38;6300216;22;20075;-61
2022/03/01 06:05:26;;;;;;;9.88;8.85;;;;;;;-3.12;88.91;96577.31;6300719;22;20080;-61
2022/03/01 06:07:52;;;;;;;10.27;8.65;;;;;;;-3.12;88.08;96578.16;6300836;22;20018;-61
2022/03/01 06:10:17;;;;;;;11.70;9.23;;;;;;;-3.14;88.80;96584.25;6300185;22;20015;-60
2022/03/01 06:12:43;;;;;;;9.95;8.93;;;;;;;-3.18;88.82;96578.31;6300445;22;20027;-61
2022/03/01 06:15:09;;;;;;;12.57;9.90;;;;;;;-3.19;87.61;96577.47;6299977;22;20339;-60
2022/03/01 06:17:34;;;;;;;16.38;10.63;;;;;;;-3.19;88.41;96580.06;6300419;22;20056;-61
2022/03/01 06:20:01;;;;;;;16.20;12.80;;;;;;;-3.17;87.81;96580.00;6300468;22;20453;-60
2022/03/01 06:22:27;;;;;;;19.52;10.93;;;;;;;-3.18;87.94;96584.31;6300466;22;20403;-61
2022/03/01 06:24:54;;;;;;;19.92;13.13;;;;;;;-3.18;88.14;96579.19;6300413;22;20010;-60
2022/03/01 06:27:20;;;;;;;24.05;14.48;;;;;;;-3.19;87.40;96595.50;6300284;22;20435;-61
2022/03/01 06:29:45;;;;;;;25.55;15.90;;;;;;;-3.19;88.25;96592.06;6299693;22;20043;-61
2022/03/01 06:32:11;;;;;;;24.88;17.05;;;;;;;-3.20;88.35;96595.53;6299771;22;20014;-61
2022/03/01 06:34:36;;;;;;;27.48;16.90;;;;;;;-3.20;87.91;96586.09;6299508;22;20030;-62
2022/03/01 06:37:01;;;;;;;28.48;16.52;;;;;;;-3.18;87.50;96584.31;6298840;22;20003;-61
2022/03/01 06:39:27;;;;;;;23.55;15.57;;;;;;;-3.15;88.12;96591.13;6298886;22;20172;-61
2022/03/01 06:41:52;;;;;;;23.63;16.92;;;;;;;-3.10;88.26;96591.84;6298837;22;20003;-61
2022/03/01 06:44:18;;;;;;;37.15;18.67;;;;;;;-3.06;87.51;96590.91;6298625;22;20007;-60
2022/03/01 06:46:44;;;;;;;35.22;21.63;;;;;;;-3.04;87.29;96584.00;6297964;22;20052;-60
2022/03/01 06:49:09;;;;;;;36.53;20.98;;;;;;;-3.03;86.09;96588.25;6299719;22;20483;-61
2022/03/01 06:51:35;;;;;;;33.47;20.15;;;;;;;-3.03;87.22;96588.25;6298687;22;20086;-62
2022/03/01 06:54:00;;;;;;;34.22;20.13;;;;;;;-3.03;86.74;96590.84;6300038;22;20008;-61
2022/03/01 06:56:27;;;;;;;33.92;20.75;;;;;;;-3.02;87.27;96601.97;6299614;22;20086;-64
2022/03/01 06:58:53;;;;;;;31.48;20.85;;;;;;;-2.99;86.18;96613.97;6299060;22;20007;-64
2022/03/01 07:01:19;;;;;;;37.05;20.85;;;;;;;-2.93;86.42;96622.41;6295787;22;20144;-62
2022/03/01 07:03:45;;;;;;;32.45;21.90;;;;;;;-2.94;86.51;96628.44;6297316;22;20030;-64
2022/03/01 07:06:11;;;;;;;26.75;20.13;;;;;;;-2.96;86.63;96632.78;6297895;22;20051;-62
2022/03/01 07:08:36;;;;;;;30.10;20.98;;;;;;;-2.94;86.84;96632.72;6297542;22;20143;-62
2022/03/01 07:11:02;;;;;;;31.80;18.77;;;;;;;-2.91;87.03;96633.50;6298437;22;20494;-62
2022/03/01 07:13:27;;;;;;;25.67;18.08;;;;;;;-2.88;87.65;96633.44;6300637;22;20026;-62
2022/03/01 07:15:53;;;;;;;27.65;19.58;;;;;;;-2.87;87.21;96629.13;6300887;22;20034;-62
2022/03/01 07:18:18;;;;;;;29.13;20.65;;;;;;;-2.77;86.02;96640.91;6273482;22;20011;-63
2022/03/01 07:20:44;;;;;;;37.78;25.08;;;;;;;-2.71;85.93;96641.63;6273718;22;20446;-62
2022/03/01 07:23:10;;;;;;;33.47;25.23;;;;;;;-2.63;85.91;96648.31;6301323;22;20097;-63
2022/03/01 07:25:36;;;;;;;35.38;23.83;;;;;;;-2.67;85.83;96646.69;6300894;22;20059;-63
2022/03/01 07:28:02;;;;;;;34.28;22.85;;;;;;;-2.68;85.87;96654.44;6301293;22;20007;-62
2022/03/01 07:30:28;;;;;;;33.90;22.52;;;;;;;-2.66;86.40;96652.69;6301079;22;20007;-62
2022/03/01 07:32:56;;;;;;;26.02;18.33;;;;;;;-2.67;86.66;96657.00;6301290;22;20047;-62
2022/03/01 07:35:23;;;;;;;23.58;16.20;;;;;;;-2.63;86.98;96652.63;6300538;22;20519;-61
2022/03/01 07:37:49;;;;;;;18.50;14.80;;;;;;;-2.52;86.13;96655.78;6301093;22;20003;-62
2022/03/01 07:40:16;;;;;;;19.83;14.27;;;;;;;-2.41;84.57;96646.94;6301199;22;20010;-62
2022/03/01 07:42:42;;;;;;;20.50;14.18;;;;;;;-2.33;84.45;96660.47;6300005;22;20003;-62
2022/03/01 07:45:09;;;;;;;18.25;14.10;;;;;;;-2.26;83.73;96659.44;6300268;22;20003;-52
2022/03/01 07:47:34;;;;;;;16.02;14.02;;;;;;;-2.21;84.11;96654.16;6299021;22;20119;-52
2022/03/01 07:50:00;;;;;;;22.30;14.43;;;;;;;-2.18;84.33;96661.81;6300611;22;20035;-56
2022/03/01 07:52:26;;;;;;;18.70;15.07;;;;;;;-2.22;85.01;96663.63;6300581;22;20032;-51
2022/03/01 07:54:52;;;;;;;18.38;15.63;;;;;;;-2.28;85.85;96668.94;6301050;22;20055;-55
2022/03/01 07:57:17;;;;;;;29.05;20.17;;;;;;;-2.27;85.88;96675.78;6301171;22;20005;-53
2022/03/01 07:59:43;;;;;;;32.75;24.85;;;;;;;-2.04;83.94;96675.22;6301581;22;20003;-55
2022/03/01 08:02:09;;;;;;;37.25;25.88;;;;;;;-2.02;83.64;96672.56;6301375;22;20007;-55
2022/03/01 08:04:34;;;;;;;39.63;26.90;;;;;;;-1.91;83.27;96680.03;6299982;22;20376;-55
2022/03/01 08:07:00;;;;;;;38.15;27.95;;;;;;;-1.90;82.94;96674.84;6301019;22;20011;-54
2022/03/01 08:09:25;;;;;;;45.03;26.08;;;;;;;-1.75;84.01;96668.41;6300094;22;20355;-55
2022/03/01 08:11:51;;;;;;;33.60;23.42;;;;;;;-1.18;83.89;96672.84;6300954;22;20004;-54
2022/03/01 08:14:16;;;;;;;27.00;20.45;;;;;;;-0.44;81.28;96677.47;6300968;22;20040;-53
2022/03/01 08:16:41;;;;;;;34.72;21.38;;;;;;;0.23;78.83;96676.06;6300680;22;20082;-55
2022/03/01 08:19:07;;;;;;;33.47;25.08;;;;;;;0.91;76.16;96672.75;6301067;22;20007;-55
2022/03/01 08:21:32;;;;;;;33.28;20.17;;;;;;;1.35;73.14;96673.69;6301183;22;20051;-54
2022/03/01 08:23:58;;;;;;;17.25;14.82;;;;;;;1.75;71.46;96679.00;6301061;22;20011;-53
2022/03/01 08:26:23;;;;;;;20.95;15.05;;;;;;;2.06;71.19;96675.13;6301169;22;20050;-55
2022/03/01 08:28:49;;;;;;;20.50;14.88;;;;;;;2.21;70.71;96676.22;6300882;22;20571;-51
2022/03/01 08:31:15;;;;;;;22.02;14.57;;;;;;;2.29;70.47;96677.56;6301403;22;20010;-53
2022/03/01 08:33:40;;;;;;;17.40;12.43;;;;;;;2.56;68.98;96679.03;6273725;22;20090;-55
2022/03/01 08:36:06;;;;;;;16.80;10.57;;;;;;;2.75;67.03;96676.44;6301065;22;20461;-55
2022/03/01 08:38:31;;;;;;;17.70;10.55;;;;;;;2.97;66.65;96678.06;6300782;22;20007;-55
2022/03/01 08:40:57;;;;;;;15.85;10.60;;;;;;;3.37;64.78;96673.59;6300877;22;20010;-54
2022/03/01 08:43:23;;;;;;;12.10;10.38;;;;;;;3.70;64.37;96682.44;6301231;22;20082;-56
2022/03/01 08:45:48;;;;;;;13.07;9.80;;;;;;;4.03;62.93;96681.72;6300895;22;20071;-56
2022/03/01 08:48:14;;;;;;;11.13;8.60;;;;;;;4.16;63.01;96681.94;6301195;22;20008;-54
2022/03/01 08:50:40;;;;;;;8.63;7.55;;;;;;;4.43;60.50;96679.69;6300856;22;20055;-54
2022/03/01 08:53:05;;;;;;;10.30;8.30;;;;;;;4.64;60.30;96676.03;6301071;22;20007;-54
2022/03/01 08:55:31;;;;;;;10.50;6.90;;;;;;;4.90;58.76;96673.78;6300876;22;20003;-55
2022/03/01 08:57:57;;;;;;;16.48;11.10;;;;;;;4.97;57.59;96675.13;6300812;22;20470;-55
2022/03/01 09:00:23;;;;;;;8.30;7.45;;;;;;;4.91;55.39;96673.72;6300807;22;20003;-55
2022/03/01 09:02:48;;;;;;;7.90;7.20;;;;;;;4.94;54.92;96670.06;6300768;22;20070;-56
2022/03/01 09:05:14;;;;;;;11.63;7.40;;;;;;;5.03;54.29;96666.97;6300768;22;20004;-56
2022/03/01 09:07:39;;;;;;;8.38;6.85;;;;;;;5.15;52.70;96666.28;6300700;22;20008;-54
2022/03/01 09:10:06;;;;;;;8.05;7.20;;;;;;;5.19;53.89;96663.50;6300884;22;20035;-53
2022/03/01 09:12:32;;;;;;;11.02;8.55;;;;;;;5.40;53.18;96659.72;6300833;22;20737;-55
2022/03/01 09:14:57;;;;;;;8.52;7.57;;;;;;;5.42;52.08;96655.28;6300554;22;20079;-53
2022/03/01 09:17:23;;;;;;;9.93;8.50;;;;;;;5.60;52.10;96657.75;6300541;22;20042;-54
2022/03/01 09:19:49;;;;;;;8.48;7.68;;;;;;;5.77;52.38;96654.19;6300663;22;20003;-55
2022/03/01 09:22:14;;;;;;;9.48;8.52;;;;;;;5.83;51.70;96655.59;6301180;22;20002;-54
2022/03/01 09:24:40;;;;;;;9.00;8.10;;;;;;;5.95;49.63;96646.19;6300534;22;20014;-55
2022/03/01 09:27:06;;;;;;;9.75;8.50;;;;;;;5.93;49.17;96646.28;6300637;22;19999;-55
2022/03/01 09:29:32;;;;;;;12.73;9.18;;;;;;;5.77;49.64;96650.72;6300744;22;20006;-53
2022/03/01 09:31:58;;;;;;;11.70;9.18;;;;;;;5.84;50.94;96638.97;6300179;22;20384;-55
2022/03/01 09:34:24;;;;;;;11.13;9.68;;;;;;;6.10;51.96;96647.94;6300690;22;20075;-54
2022/03/01 09:36:50;;;;;;;14.45;9.82;;;;;;;6.44;50.08;96645.06;6300325;22;20034;-53
2022/03/01 09:39:16;;;;;;;11.40;10.20;;;;;;;6.65;49.23;96648.19;6300868;22;20392;-55
2022/03/01 09:41:42;;;;;;;10.68;9.25;;;;;;;6.72;48.77;96649.47;6300779;22;20010;-55
2022/03/01 09:44:09;;;;;;;13.85;9.80;;;;;;;6.91;48.49;96647.47;6300704;22;20094;-55
2022/03/01 09:46:34;;;;;;;12.43;9.20;;;;;;;7.24;47.08;96641.06;6300462;22;20007;-53
2022/03/01 09:49:00;;;;;;;10.00;8.82;;;;;;;7.85;44.82;96648.53;6300489;22;20038;-55
2022/03/01 09:51:26;;;;;;;12.63;10.77;;;;;;;7.90;45.14;96646.44;6300830;22;20006;-52
2022/03/01 09:53:52;;;;;;;13.07;9.82;;;;;;;7.86;44.65;96652.81;6300557;22;20003;-54
2022/03/01 09:56:19;;;;;;;12.77;10.18;;;;;;;8.14;44.37;96653.59;6300556;22;20019;-54
2022/03/01 09:58:46;;;;;;;15.52;9.90;;;;;;;8.32;43.55;96641.84;6300792;22;20011;-52
2022/03/01 10:01:11;;;;;;;12.13;8.77;;;;;;;8.60;42.39;96649.63;6300759;22;20439;-54
2022/03/01 10:03:38;;;;;;;10.10;8.43;;;;;;;8.21;42.73;96648.78;6273268;22;20067;-53
2022/03/01 10:06:09;;;;;;;9.60;8.68;;;;;;;8.03;42.72;96656.94;6300442;22;20003;-52
2022/03/01 10:08:34;;;;;;;10.57;9.48;;;;;;;8.23;42.16;96647.72;6300267;22;19999;-53
2022/03/01 10:11:00;;;;;;;10.52;9.13;;;;;;;8.15;42.13;96644.78;6300843;22;20015;-53
2022/03/01 10:13:28;;;;;;;12.00;10.45;;;;;;;8.36;42.21;96646.91;6300871;22;20003;-53
2022/03/01 10:16:08;;;;;;;13.85;10.07;;;;;;;8.68;41.89;96652.59;6300419;22;20315;-51
2022/03/01 10:18:37;;;;;;;15.82;11.35;;;;;;;8.80;41.84;96644.78;6300233;22;19999;-54
2022/03/01 10:21:06;;;;;;;16.95;13.00;;;;;;;8.85;42.75;96642.69;6300689;22;20010;-54
2022/03/01 10:23:32;;;;;;;13.35;9.52;;;;;;;8.96;40.69;96641.94;6300388;22;20003;-49
2022/03/01 10:26:09;;;;;;;13.93;10.43;;;;;;;9.05;40.83;96648.31;6300198;22;20007;-51
2022/03/01 10:28:37;;;;;;;11.70;10.50;;;;;;;8.92;40.92;96643.09;6300358;22;20014;-55
2022/03/01 10:31:31;;;;;;;11.43;9.65;;;;;;;9.57;39.65;96638.44;6300453;22;20006;-52
2022/03/01 10:33:57;;;;;;;13.38;10.68;;;;;;;9.48;40.21;96636.50;6300400;22;20006;-53
2022/03/01 10:36:24;;;;;;;10.77;9.65;;;;;;;9.52;39.96;96636.19;6300459;22;20003;-53
2022/03/01 10:38:57;;;;;;;14.52;11.68;;;;;;;9.77;39.29;96631.75;6300162;22;20023;-54
2022/03/01 10:41:26;;;;;;;14.27;11.48;;;;;;;9.70;39.59;96630.50;6300149;22;20027;-50
2022/03/01 10:43:53;;;;;;;14.25;12.75;;;;;;;9.75;38.89;96631.84;6300206;22;20007;-52
2022/03/01 10:46:19;;;;;;;17.88;13.77;;;;;;;9.77;38.82;96641.41;6300535;22;19999;-52
2022/03/01 10:48:45;;;;;;;16.35;11.68;;;;;;;9.18;41.45;96638.59;6300225;22;20026;-51
2022/03/01 10:51:10;;;;;;;14.40;10.75;;;;;;;9.30;40.53;96636.88;6300133;22;20078;-54
2022/03/01 10:53:41;;;;;;;15.85;12.60;;;;;;;10.11;39.13;96628.38;6272795;22;20451;-54
2022/03/01 10:56:09;;;;;;;13.65;11.07;;;;;;;10.66;37.47;96625.97;6300062;22;20034;-54
2022/03/01 10:58:36;;;;;;;13.32;10.80;;;;;;;10.91;37.66;96631.09;6300338;22;19999;-53
2022/03/01 11:01:06;;;;;;;11.70;10.38;;;;;;;10.78;36.59;96631.22;6300014;22;20003;-53
2022/03/01 11:03:32;;;;;;;13.23;11.35;;;;;;;10.54;37.49;96630.38;6300370;22;20529;-50
2022/03/01 11:05:58;;;;;;;14.15;11.07;;;;;;;10.73;37.10;96621.06;6299922;22;20003;-51
2022/03/01 11:08:37;;;;;;;17.42;11.63;;;;;;;11.93;36.44;96624.69;6300121;22;20003;-55
2022/03/01 11:11:06;;;;;;;12.98;11.73;;;;;;;12.37;34.81;96614.06;6300086;22;20107;-54
2022/03/01 11:13:37;;;;;;;11.27;10.05;;;;;;;12.71;34.03;96613.78;6300075;22;20006;-54
2022/03/01 11:16:20;;;;;;;11.98;9.98;;;;;;;12.77;33.84;96618.56;6299866;22;20078;-54
2022/03/01 11:18:51;;;;;;;14.93;10.38;;;;;;;12.71;33.57;96611.13;6299967;22;20071;-54